sensor_id;sensor_type;location;lat;lon;timestamp;P1;durP1;ratioP1;P2;durP2;ratioP2
20104;SDS011;10212;42.714;23.310;2023-12-29T00:09:49;128.13;;;55.70;;
20104;SDS011;10212;42.714;23.310;2023-12-29T00:19:49;124.47;;;55.95;;
20104;SDS011;10212;42.714;23.310;2023-12-29T00:29:50;129.65;;;56.25;;
20104;SDS011;10212;42.714;23.310;2023-12-29T00:39:50;131.48;;;59.47;;
20104;SDS011;10212;42.714;23.310;2023-12-29T00:49:51;134.88;;;59.78;;
20104;SDS011;10212;42.714;23.310;2023-12-29T00:59:51;136.32;;;61.20;;
20104;SDS011;10212;42.714;23.310;2023-12-29T01:09:52;130.20;;;57.70;;
20104;SDS011;10212;42.714;23.310;2023-12-29T01:19:52;140.90;;;59.70;;
20104;SDS011;10212;42.714;23.310;2023-12-29T01:29:52;134.35;;;58.95;;
20104;SDS011;10212;42.714;23.310;2023-12-29T01:39:53;128.05;;;56.08;;
20104;SDS011;10212;42.714;23.310;2023-12-29T01:49:53;128.45;;;57.58;;
20104;SDS011;10212;42.714;23.310;2023-12-29T01:59:54;123.95;;;57.20;;
20104;SDS011;10212;42.714;23.310;2023-12-29T02:09:54;115.30;;;54.90;;
20104;SDS011;10212;42.714;23.310;2023-12-29T02:19:55;118.55;;;54.53;;
20104;SDS011;10212;42.714;23.310;2023-12-29T02:40:10;124.32;;;50.78;;
20104;SDS011;10212;42.714;23.310;2023-12-29T02:50:11;116.40;;;51.20;;
20104;SDS011;10212;42.714;23.310;2023-12-29T03:00:12;121.85;;;51.45;;
20104;SDS011;10212;42.714;23.310;2023-12-29T03:10:12;123.72;;;50.90;;
20104;SDS011;10212;42.714;23.310;2023-12-29T03:20:13;110.88;;;49.38;;
20104;SDS011;10212;42.714;23.310;2023-12-29T03:30:14;130.38;;;52.97;;
20104;SDS011;10212;42.714;23.310;2023-12-29T03:40:14;110.68;;;50.85;;
20104;SDS011;10212;42.714;23.310;2023-12-29T03:50:15;80.97;;;37.20;;
20104;SDS011;10212;42.714;23.310;2023-12-29T04:00:15;106.28;;;45.17;;
20104;SDS011;10212;42.714;23.310;2023-12-29T04:10:16;113.60;;;48.85;;
20104;SDS011;10212;42.714;23.310;2023-12-29T04:20:16;101.45;;;43.65;;
20104;SDS011;10212;42.714;23.310;2023-12-29T04:30:17;108.72;;;46.72;;
20104;SDS011;10212;42.714;23.310;2023-12-29T04:40:17;105.68;;;47.72;;
20104;SDS011;10212;42.714;23.310;2023-12-29T04:50:17;103.40;;;46.40;;
20104;SDS011;10212;42.714;23.310;2023-12-29T05:00:18;104.15;;;43.05;;
20104;SDS011;10212;42.714;23.310;2023-12-29T05:10:19;101.13;;;43.70;;
20104;SDS011;10212;42.714;23.310;2023-12-29T05:20:19;105.65;;;44.63;;
20104;SDS011;10212;42.714;23.310;2023-12-29T05:30:19;108.32;;;45.20;;
20104;SDS011;10212;42.714;23.310;2023-12-29T05:40:20;97.97;;;43.72;;
20104;SDS011;10212;42.714;23.310;2023-12-29T05:50:20;112.32;;;44.22;;
20104;SDS011;10212;42.714;23.310;2023-12-29T06:00:21;111.90;;;46.67;;
20104;SDS011;10212;42.714;23.310;2023-12-29T06:10:21;116.05;;;47.97;;
20104;SDS011;10212;42.714;23.310;2023-12-29T06:20:21;95.30;;;40.42;;
20104;SDS011;10212;42.714;23.310;2023-12-29T06:30:22;96.35;;;40.70;;
20104;SDS011;10212;42.714;23.310;2023-12-29T06:40:22;98.75;;;40.70;;
20104;SDS011;10212;42.714;23.310;2023-12-29T06:50:23;76.13;;;35.75;;
20104;SDS011;10212;42.714;23.310;2023-12-29T07:00:23;154.85;;;62.40;;
20104;SDS011;10212;42.714;23.310;2023-12-29T07:10:24;158.27;;;65.70;;
20104;SDS011;10212;42.714;23.310;2023-12-29T07:20:25;168.60;;;70.43;;
20104;SDS011;10212;42.714;23.310;2023-12-29T07:30:25;162.93;;;64.15;;
20104;SDS011;10212;42.714;23.310;2023-12-29T07:40:26;108.00;;;45.47;;
20104;SDS011;10212;42.714;23.310;2023-12-29T07:50:26;113.03;;;41.25;;
20104;SDS011;10212;42.714;23.310;2023-12-29T08:00:26;90.55;;;34.30;;
20104;SDS011;10212;42.714;23.310;2023-12-29T08:10:27;88.10;;;36.20;;
20104;SDS011;10212;42.714;23.310;2023-12-29T08:20:27;84.75;;;35.47;;
20104;SDS011;10212;42.714;23.310;2023-12-29T08:30:28;89.38;;;35.75;;
20104;SDS011;10212;42.714;23.310;2023-12-29T08:40:29;83.97;;;35.70;;
20104;SDS011;10212;42.714;23.310;2023-12-29T08:50:29;87.53;;;36.17;;
20104;SDS011;10212;42.714;23.310;2023-12-29T09:00:30;95.85;;;41.05;;
20104;SDS011;10212;42.714;23.310;2023-12-29T09:10:30;93.72;;;40.53;;
20104;SDS011;10212;42.714;23.310;2023-12-29T09:20:30;112.97;;;45.20;;
20104;SDS011;10212;42.714;23.310;2023-12-29T09:30:31;104.68;;;45.25;;
20104;SDS011;10212;42.714;23.310;2023-12-29T09:40:32;101.75;;;44.10;;
20104;SDS011;10212;42.714;23.310;2023-12-29T09:50:33;136.65;;;63.47;;
20104;SDS011;10212;42.714;23.310;2023-12-29T10:00:35;115.10;;;56.88;;
20104;SDS011;10212;42.714;23.310;2023-12-29T10:10:36;114.97;;;54.67;;
20104;SDS011;10212;42.714;23.310;2023-12-29T10:30:58;108.97;;;52.72;;
20104;SDS011;10212;42.714;23.310;2023-12-29T10:41:12;112.50;;;51.83;;
20104;SDS011;10212;42.714;23.310;2023-12-29T10:51:16;99.80;;;49.35;;
20104;SDS011;10212;42.714;23.310;2023-12-29T11:01:27;101.30;;;50.55;;
20104;SDS011;10212;42.714;23.310;2023-12-29T11:11:27;93.57;;;48.05;;
20104;SDS011;10212;42.714;23.310;2023-12-29T11:21:28;94.70;;;46.35;;
20104;SDS011;10212;42.714;23.310;2023-12-29T11:31:31;90.95;;;46.40;;
20104;SDS011;10212;42.714;23.310;2023-12-29T11:41:42;88.65;;;45.42;;
20104;SDS011;10212;42.714;23.310;2023-12-29T11:51:57;87.82;;;46.38;;
20104;SDS011;10212;42.714;23.310;2023-12-29T12:01:58;89.65;;;45.42;;
20104;SDS011;10212;42.714;23.310;2023-12-29T12:12:03;87.00;;;45.47;;
20104;SDS011;10212;42.714;23.310;2023-12-29T12:22:05;86.97;;;44.53;;
20104;SDS011;10212;42.714;23.310;2023-12-29T12:32:06;84.53;;;43.65;;
20104;SDS011;10212;42.714;23.310;2023-12-29T12:42:07;86.90;;;44.15;;
20104;SDS011;10212;42.714;23.310;2023-12-29T12:52:08;81.03;;;42.90;;
20104;SDS011;10212;42.714;23.310;2023-12-29T13:02:08;60.03;;;33.25;;
20104;SDS011;10212;42.714;23.310;2023-12-29T13:12:12;74.38;;;38.83;;
20104;SDS011;10212;42.714;23.310;2023-12-29T13:22:14;74.22;;;36.33;;
20104;SDS011;10212;42.714;23.310;2023-12-29T13:32:19;62.15;;;31.38;;
20104;SDS011;10212;42.714;23.310;2023-12-29T13:42:24;55.17;;;28.15;;
20104;SDS011;10212;42.714;23.310;2023-12-29T13:52:29;52.72;;;26.95;;
20104;SDS011;10212;42.714;23.310;2023-12-29T14:02:32;75.45;;;39.30;;
20104;SDS011;10212;42.714;23.310;2023-12-29T14:12:36;77.13;;;40.83;;
20104;SDS011;10212;42.714;23.310;2023-12-29T14:22:36;74.20;;;39.72;;
20104;SDS011;10212;42.714;23.310;2023-12-29T14:32:37;84.27;;;44.80;;
20104;SDS011;10212;42.714;23.310;2023-12-29T14:42:37;92.22;;;48.45;;
20104;SDS011;10212;42.714;23.310;2023-12-29T14:52:39;92.97;;;49.95;;
20104;SDS011;10212;42.714;23.310;2023-12-29T15:02:40;95.00;;;48.65;;
20104;SDS011;10212;42.714;23.310;2023-12-29T15:12:42;89.00;;;44.15;;
20104;SDS011;10212;42.714;23.310;2023-12-29T15:22:43;25.98;;;12.43;;
20104;SDS011;10212;42.714;23.310;2023-12-29T15:32:43;20.23;;;7.65;;
20104;SDS011;10212;42.714;23.310;2023-12-29T15:42:44;19.80;;;7.95;;
20104;SDS011;10212;42.714;23.310;2023-12-29T15:52:44;20.58;;;9.43;;
20104;SDS011;10212;42.714;23.310;2023-12-29T16:02:45;22.17;;;9.75;;
20104;SDS011;10212;42.714;23.310;2023-12-29T16:12:45;25.23;;;11.13;;
20104;SDS011;10212;42.714;23.310;2023-12-29T16:22:46;22.52;;;10.75;;
20104;SDS011;10212;42.714;23.310;2023-12-29T16:32:46;20.50;;;8.68;;
20104;SDS011;10212;42.714;23.310;2023-12-29T16:42:46;15.70;;;7.93;;
20104;SDS011;10212;42.714;23.310;2023-12-29T16:52:47;19.55;;;7.68;;
20104;SDS011;10212;42.714;23.310;2023-12-29T17:02:47;19.55;;;8.10;;
20104;SDS011;10212;42.714;23.310;2023-12-29T17:12:47;38.78;;;17.70;;
20104;SDS011;10212;42.714;23.310;2023-12-29T17:22:51;29.17;;;14.05;;
20104;SDS011;10212;42.714;23.310;2023-12-29T17:32:52;23.25;;;11.95;;
20104;SDS011;10212;42.714;23.310;2023-12-29T17:42:53;24.23;;;9.25;;
20104;SDS011;10212;42.714;23.310;2023-12-29T17:52:53;19.30;;;9.23;;
20104;SDS011;10212;42.714;23.310;2023-12-29T18:02:53;20.02;;;10.30;;
20104;SDS011;10212;42.714;23.310;2023-12-29T18:12:54;26.48;;;11.13;;
20104;SDS011;10212;42.714;23.310;2023-12-29T18:22:56;22.35;;;11.50;;
20104;SDS011;10212;42.714;23.310;2023-12-29T18:32:57;29.80;;;12.70;;
20104;SDS011;10212;42.714;23.310;2023-12-29T18:43:00;34.28;;;14.48;;
20104;SDS011;10212;42.714;23.310;2023-12-29T18:53:01;28.13;;;13.27;;
20104;SDS011;10212;42.714;23.310;2023-12-29T19:03:04;26.88;;;13.43;;
20104;SDS011;10212;42.714;23.310;2023-12-29T19:13:04;28.73;;;14.07;;
20104;SDS011;10212;42.714;23.310;2023-12-29T19:23:05;33.55;;;16.00;;
20104;SDS011;10212;42.714;23.310;2023-12-29T19:33:05;40.25;;;17.02;;
20104;SDS011;10212;42.714;23.310;2023-12-29T19:43:06;39.47;;;17.15;;
20104;SDS011;10212;42.714;23.310;2023-12-29T19:53:07;36.70;;;16.98;;
20104;SDS011;10212;42.714;23.310;2023-12-29T20:03:07;52.30;;;23.48;;
20104;SDS011;10212;42.714;23.310;2023-12-29T20:13:08;48.75;;;23.92;;
20104;SDS011;10212;42.714;23.310;2023-12-29T20:23:09;68.97;;;29.65;;
20104;SDS011;10212;42.714;23.310;2023-12-29T20:33:10;59.88;;;27.45;;
20104;SDS011;10212;42.714;23.310;2023-12-29T20:43:10;61.92;;;26.70;;
20104;SDS011;10212;42.714;23.310;2023-12-29T20:53:10;58.67;;;28.48;;
20104;SDS011;10212;42.714;23.310;2023-12-29T21:03:11;67.80;;;30.33;;
20104;SDS011;10212;42.714;23.310;2023-12-29T21:13:11;67.60;;;30.83;;
20104;SDS011;10212;42.714;23.310;2023-12-29T21:23:12;78.82;;;36.35;;
20104;SDS011;10212;42.714;23.310;2023-12-29T21:33:12;82.07;;;36.67;;
20104;SDS011;10212;42.714;23.310;2023-12-29T21:43:13;73.43;;;35.17;;
20104;SDS011;10212;42.714;23.310;2023-12-29T21:53:13;76.05;;;35.60;;
20104;SDS011;10212;42.714;23.310;2023-12-29T22:03:13;79.18;;;35.00;;
20104;SDS011;10212;42.714;23.310;2023-12-29T22:13:14;73.10;;;34.80;;
20104;SDS011;10212;42.714;23.310;2023-12-29T22:23:14;79.57;;;34.10;;
20104;SDS011;10212;42.714;23.310;2023-12-29T22:33:15;81.75;;;37.63;;
20104;SDS011;10212;42.714;23.310;2023-12-29T22:43:15;83.63;;;39.67;;
20104;SDS011;10212;42.714;23.310;2023-12-29T22:53:16;98.70;;;44.88;;
20104;SDS011;10212;42.714;23.310;2023-12-29T23:03:17;97.93;;;44.78;;
20104;SDS011;10212;42.714;23.310;2023-12-29T23:13:18;93.60;;;44.25;;
20104;SDS011;10212;42.714;23.310;2023-12-29T23:23:19;134.77;;;63.42;;
20104;SDS011;10212;42.714;23.310;2023-12-29T23:33:19;136.30;;;62.60;;
20104;SDS011;10212;42.714;23.310;2023-12-29T23:43:19;139.93;;;63.53;;
20104;SDS011;10212;42.714;23.310;2023-12-29T23:53:20;138.45;;;59.65;;
